Terminal Aerodrome Forecast
Issued by NWS Bismarck, ND

Home | Current Version | Previous Version | Text Only | Print | Product List | Glossary On
Versions: 1 2 3 4 5 6 7 8 9 10 11 12 13 14 15 16 17
000
FTUS43 KBIS 181700
TAFBIS
TAF
KBIS 181724Z 1818/1918 16004KT P6SM BKN100
     FM182000 17011KT P6SM VCSH OVC070
     FM190200 33019G29KT 5SM -SHRA OVC040
     FM190900 33017G25KT P6SM OVC060
     FM191600 32022G33KT P6SM BKN040=

USA.gov is the U.S. government's official web portal to all federal, state and local government web resources and services.